Latest Coastal Weather Observations for Cape Sorell

IDT60701

Issued at 6:52 pm EST Tuesday 25 July 2017 (issued every 10 minutes, with the page automatically refreshed every 10 minutes)

About coastal observations | Map of coastal stations | Coastal observations for TAS | Marine services | Other Formats
Station Details ID: 097000 Name: CAPE SORELL Lat: -42.20 Lon: 145.17 Height: 19.3 m
Data from the previous 72 hours. | See also: Recent months at Cape Sorell
Date/Time
EST
Temp
°C
Wind Pressure Rain since
9am
mm
Weather Cloud Vis
km
Sea
Height
m
Swell
Dir  Spd
kts
Gust
kts
hPa Trend Height
m
Period
s
Dir
25/06:30pm 10.1 NW 13 19 1003.7 - 1.0 - - - - - - -
25/06:10pm 11.6 WNW 21 34 1003.5 - 0.4 - - - - - - -
25/06:00pm 11.8 NW 19 26 1003.5 - 0.2 - - - - - - -
25/05:30pm 12.0 WNW 18 23 1003.6 - 0.2 - - - - - - -
25/05:12pm 11.8 NW 20 29 1003.6 - 0.2 - - - - - - -
25/05:00pm 12.4 NW 20 27 1003.6 - 0.2 - - - - - - -
25/04:30pm 12.6 NW 21 27 1003.6 - 0.2 - - - - - - -
25/04:00pm 12.6 NW 20 25 1003.8 - 0.2 - - - - - - -
25/03:30pm 12.5 NW 17 23 1003.9 - 0.2 - - - - - - -
25/03:00pm 13.1 NW 17 22 1004.3 - 0.2 - - - - - - -
25/02:30pm 12.9 NW 14 19 1004.6 - 0.2 - - - - - - -
25/02:00pm 12.6 NW 12 17 1004.9 - 0.2 - - - - - - -
25/01:30pm 12.7 NW 14 18 1005.3 - 0.0 - - - - - - -
25/01:00pm 12.8 WNW 14 17 1005.7 - 0.0 - - - - - - -
25/12:30pm 13.1 WNW 15 19 1006.1 - 0.0 - - - - - - -
25/12:00pm 12.9 WNW 15 19 1006.5 - 0.0 - - - - - - -
25/11:30am 12.9 WNW 15 20 1007.0 - 0.0 - - - - - - -
25/11:00am 12.8 WNW 16 20 1007.3 - 0.0 - - - - - - -
25/10:30am 12.5 WNW 14 19 1007.7 - 0.0 - - - - - - -
25/10:00am 12.3 WNW 18 25 1007.7 - 0.0 - - - - - - -
25/09:30am 12.6 WNW 17 24 1007.7 - 0.0 - - - - - - -
25/09:00am 12.1 WNW 20 26 1007.9 - 7.8 - - - - - - -
25/08:30am 12.0 WNW 20 26 1007.6 - 7.8 - - - - - - -
25/08:00am 11.8 WNW 26 32 1007.3 - 7.8 - - - - - - -
25/07:30am 11.8 WNW 29 36 1006.6 - 7.8 - - - - - - -
25/07:00am 11.8 NW 28 39 1005.9 - 7.8 - - - - - - -
25/06:30am 11.7 NNW 23 34 1005.3 - 7.6 - - - - - - -
25/06:29am 11.8 NNW 22 33 1005.4 - 7.6 - - - - - - -
25/06:20am 11.3 N 23 31 1005.6 - 7.6 - - - - - - -
25/06:00am 9.9 NNE 18 23 1005.6 - 7.4 Rain - - - - - -
25/05:30am 9.7 NNE 18 21 1006.7 - 3.8 - - - - - - -
25/05:00am 9.5 NNE 20 23 1007.2 - 3.2 - - - - - - -
25/04:30am 9.3 NNE 16 20 1008.1 - 2.4 - - - - - - -
25/04:00am 9.4 NNE 17 20 1008.6 - 1.2 - - - - - - -
25/03:30am 9.5 NNE 16 18 1009.1 - 1.2 - - - - - - -
25/03:00am 10.0 N 19 27 1009.7 - 1.2 Recent precip. - - - - - -
25/02:30am 9.6 NNE 16 19 1010.4 - 1.0 - - - - - - -
25/02:00am 10.6 N 17 20 1010.9 - 1.0 - - - - - - -
25/01:30am 10.8 N 13 18 1011.2 - 1.0 - - - - - - -
25/01:00am 10.8 NNW 15 19 1011.6 - 1.0 - - - - - - -
25/12:30am 10.5 NNW 13 16 1011.8 - 1.0 - - - - - - -
25/12:00am 10.1 NW 9 14 1012.2 - 1.0 - - - - - - -
 
Date/Time
EST
Temp
°C
Wind Pressure Rain since
9am
mm
Weather Cloud Vis
km
Sea
Height
m
Swell
Dir  Spd
kts
Gust
kts
hPa Trend Height
m
Period
s
Dir
24/11:30pm 10.2 WNW 11 16 1012.6 - 1.0 - - - - - - -
24/11:00pm 10.1 WNW 12 17 1012.8 - 1.0 - - - - - - -
24/10:30pm 9.9 WNW 15 18 1013.1 - 1.0 - - - - - - -
24/10:00pm 9.4 WNW 13 17 1013.3 - 1.0 - - - - - - -
24/09:30pm 8.7 WNW 15 20 1013.3 - 1.0 - - - - - - -
24/09:00pm 8.8 WNW 11 16 1013.5 - 1.0 Recent precip. - - - - - -
24/08:30pm 9.0 W 11 19 1013.6 - 0.8 - - - - - - -
24/08:00pm 8.7 NW 13 20 1013.7 - 0.8 - - - - - - -
24/07:30pm 8.8 WNW 12 20 1013.6 - 0.6 - - - - - - -
24/07:00pm 8.5 WNW 12 17 1013.7 - 0.6 - - - - - - -
24/06:30pm 8.1 WNW 16 23 1013.5 - 0.6 - - - - - - -
24/06:00pm 8.1 WNW 17 23 1013.4 - 0.6 Recent precip. - - - - - -
24/05:30pm 8.1 WNW 15 20 1013.4 - 0.4 - - - - - - -
24/05:00pm 8.4 W 11 17 1013.5 - 0.2 - - - - - - -
24/04:30pm 8.3 WNW 12 21 1013.3 - 0.2 - - - - - - -
24/04:00pm 8.8 W 14 18 1013.5 - 0.0 - - - - - - -
24/03:30pm 9.0 W 12 16 1013.6 - 0.0 - - - - - - -
24/03:00pm 9.7 WNW 15 20 1013.4 - 0.0 - - - - - - -
24/02:30pm 9.3 WNW 14 21 1013.6 - 0.0 - - - - - - -
24/02:00pm 10.2 WNW 13 21 1013.5 - 0.0 - - - - - - -
24/01:30pm 9.7 WNW 14 20 1013.9 - 0.0 - - - - - - -
24/01:00pm 9.5 WNW 12 17 1014.1 - 0.0 - - - - - - -
24/12:30pm 9.7 NW 11 16 1014.5 - 0.0 - - - - - - -
24/12:00pm 9.8 W 12 17 1014.7 - 0.0 - - - - - - -
24/11:30am 9.4 WNW 15 21 1015.0 - 0.0 - - - - - - -
24/11:00am 9.5 W 13 19 1015.0 - 0.0 - - - - - - -
24/10:30am 9.2 W 16 21 1015.0 - 0.0 - - - - - - -
24/10:00am 9.4 W 13 19 1014.8 - 0.0 - - - - - - -
24/09:30am 9.1 WSW 16 21 1014.6 - 0.0 - - - - - - -
24/09:00am 9.0 WSW 12 18 1014.5 - 1.8 - - - - - - -
24/08:30am 8.9 WSW 17 24 1014.0 - 1.8 - - - - - - -
24/08:00am 8.6 W 18 26 1013.9 - 1.8 - - - - - - -
24/07:30am 8.8 W 13 23 1013.7 - 1.8 - - - - - - -
24/07:00am 8.6 WNW 13 20 1013.5 - 1.8 - - - - - - -
24/06:30am 8.8 W 17 23 1012.9 - 1.8 - - - - - - -
24/06:00am 8.6 WSW 17 22 1012.4 - 1.8 Recent precip. - - - - - -
24/05:30am 8.2 W 13 19 1012.4 - 1.6 - - - - - - -
24/05:00am 8.0 WSW 21 26 1012.2 - 1.6 - - - - - - -
24/04:30am 7.5 W 13 18 1012.3 - 1.6 - - - - - - -
24/04:00am 8.0 WSW 16 23 1012.2 - 1.6 - - - - - - -
24/03:56am 8.0 WSW 15 22 1012.1 - 1.6 - - - - - - -
24/03:30am 7.6 WSW 11 17 1012.3 - 1.6 - - - - - - -
24/03:18am 7.8 WSW 20 24 1012.2 - 1.6 - - - - - - -
24/03:00am 7.2 W 11 17 1012.5 - 1.6 - - - - - - -
24/02:38am 8.2 W 12 25 1012.2 - 1.6 - - - - - - -
24/02:30am 7.5 WNW 10 15 1012.5 - 1.6 - - - - - - -
24/02:00am 7.7 W 13 18 1012.3 - 1.6 - - - - - - -
24/01:30am 7.3 W 12 21 1012.2 - 1.6 - - - - - - -
24/01:18am 7.6 WSW 15 25 1012.0 - 1.6 - - - - - - -
24/01:00am 7.8 WSW 15 19 1011.8 - 1.6 - - - - - - -
24/12:30am 7.5 SW 12 17 1012.2 - 1.6 - - - - - - -
24/12:00am 7.5 WSW 19 25 1011.9 - 1.4 - - - - - - -
 
Date/Time
EST
Temp
°C
Wind Pressure Rain since
9am
mm
Weather Cloud Vis
km
Sea
Height
m
Swell
Dir  Spd
kts
Gust
kts
hPa Trend Height
m
Period
s
Dir
23/11:30pm 7.5 WSW 15 19 1011.8 - 1.4 - - - - - - -
23/11:00pm 7.6 WSW 16 20 1011.6 - 1.4 - - - - - - -
23/10:30pm 7.1 SW 16 20 1011.5 - 1.4 - - - - - - -
23/10:01pm 8.3 SW 16 26 1011.0 - 1.4 - - - - - - -
23/10:00pm 8.2 SW 15 20 1011.1 - 1.4 - - - - - - -
23/09:30pm 8.3 SW 15 21 1010.9 - 1.4 - - - - - - -
23/09:00pm 8.1 SW 19 23 1010.5 - 1.4 - - - - - - -
23/08:30pm 7.8 SW 18 21 1010.1 - 1.4 - - - - - - -
23/08:00pm 7.8 SW 18 23 1009.9 - 1.4 - - - - - - -
23/07:30pm 7.6 SW 18 21 1009.5 - 1.4 - - - - - - -
23/07:00pm 7.3 WSW 18 26 1009.1 - 1.4 - - - - - - -
23/06:56pm 7.1 SW 22 29 1009.1 - 1.4 - - - - - - -
23/06:30pm 8.1 SW 21 30 1008.5 - 1.2 - - - - - - -
23/06:26pm 8.2 SW 18 30 1008.5 - 1.2 - - - - - - -
23/06:00pm 7.9 SW 24 29 1008.1 - 1.2 - - - - - - -
23/05:30pm 7.9 SW 24 27 1007.6 - 1.2 - - - - - - -
23/05:00pm 8.2 SSW 22 26 1007.3 - 1.2 - - - - - - -
23/04:30pm 8.1 SW 24 29 1006.7 - 1.0 - - - - - - -
23/04:00pm 9.0 SW 22 28 1005.8 - 1.0 - - - - - - -
23/03:30pm 9.0 SSW 20 25 1005.6 - 1.0 - - - - - - -
23/03:00pm 9.3 SSW 20 25 1004.9 - 1.0 - - - - - - -
23/02:30pm 9.3 SSW 22 27 1004.2 - 1.0 - - - - - - -
23/02:00pm 9.9 SSW 22 27 1003.6 - 1.0 - - - - - - -
23/01:30pm 10.6 SSW 22 25 1002.8 - 1.0 - - - - - - -
23/01:00pm 10.5 SSW 21 27 1002.6 - 1.0 - - - - - - -
23/12:30pm 11.5 SW 17 20 1002.1 - 1.0 - - - - - - -
23/12:00pm 10.7 SW 17 20 1001.8 - 1.0 - - - - - - -
23/11:30am 10.9 SW 12 16 1001.7 - 1.0 - - - - - - -
23/11:00am 10.5 WSW 10 14 1001.6 - 1.0 - - - - - - -
23/10:30am 10.1 WSW 11 15 1001.4 - 1.0 - - - - - - -
23/10:00am 9.6 WNW 14 20 1001.4 - 0.6 - - - - - - -
23/09:30am 9.5 W 12 16 1001.2 - 0.0 - - - - - - -
23/09:00am 8.9 WNW 19 25 1001.1 - 11.6 Rain - - - - - -
23/08:49am 8.3 W 21 33 1001.0 - 11.2 - - - - - - -
23/08:45am 8.8 W 21 33 1000.9 - 11.2 - - - - - - -
23/08:33am 9.8 W 20 35 1000.3 - 9.2 - - - - - - -
23/08:30am 10.6 W 17 28 1000.4 - 8.4 - - - - - - -
23/08:17am 11.5 WNW 21 33 1000.4 - 8.4 - - - - - - -
23/08:00am 11.4 WNW 22 28 1000.5 - 8.2 - - - - - - -
23/07:30am 10.9 W 20 29 1000.3 - 8.2 - - - - - - -
23/07:00am 11.4 WNW 21 27 1000.3 - 8.2 - - - - - - -
23/06:30am 11.3 W 23 30 999.9 - 8.2 - - - - - - -
23/06:00am 11.5 W 19 27 999.6 - 8.2 - - - - - - -
23/05:30am 11.3 WNW 24 32 999.4 - 8.2 - - - - - - -
23/05:00am 11.0 W 22 30 999.4 - 8.2 - - - - - - -
23/04:50am 11.5 WNW 22 36 999.4 - 8.2 - - - - - - -
23/04:30am 11.6 WNW 23 30 999.5 - 8.2 - - - - - - -
23/04:19am 11.5 WNW 21 31 999.3 - 8.2 - - - - - - -
23/04:00am 11.7 NW 25 33 999.5 - 8.2 - - - - - - -
23/03:30am 11.6 NW 20 34 999.8 - 8.2 - - - - - - -
23/03:00am 11.3 NNW 25 36 999.7 - 8.2 - - - - - - -
23/02:58am 12.1 NNW 24 36 999.6 - 8.2 - - - - - - -
23/02:30am 12.1 NW 21 27 1000.3 - 8.2 - - - - - - -
23/02:00am 12.1 NW 21 28 1000.8 - 8.2 - - - - - - -
23/01:30am 12.0 NW 22 28 1001.0 - 8.2 - - - - - - -
23/01:00am 11.5 NNW 24 29 1001.3 - 8.2 - - - - - - -
23/12:30am 11.5 NNW 26 34 1001.6 - 8.2 - - - - - - -
23/12:08am 11.4 NNW 23 33 1001.7 - 8.2 - - - - - - -
23/12:00am 11.5 NNW 25 33 1001.7 - 8.2 Recent precip. - - - - - -
 
Date/Time
EST
Temp
°C
Wind Pressure Rain since
9am
mm
Weather Cloud Vis
km
Sea
Height
m
Swell
Dir  Spd
kts
Gust
kts
hPa Trend Height
m
Period
s
Dir
22/11:30pm 10.9 NNW 25 37 1001.0 - 8.0 - - - - - - -
22/11:29pm 11.1 NNW 24 37 1001.1 - 8.0 - - - - - - -
22/11:00pm 9.4 NNW 27 36 1002.2 - 7.0 - - - - - - -
22/10:52pm 9.3 NNW 29 39 1002.1 - 6.4 - - - - - - -
22/10:38pm 10.3 NNW 29 48 1002.4 - 3.8 - - - - - - -
22/10:37pm 12.0 NNW 28 48 1002.1 - 2.8 - - - - - - -
22/10:33pm 12.4 NNW 27 37 1000.5 - 1.8 - - - - - - -
22/10:30pm 12.5 NNW 27 36 1001.0 - 1.6 - - - - - - -
22/10:00pm 12.6 N 31 38 1000.7 - 1.2 - - - - - - -
22/09:40pm 12.5 N 30 41 1001.0 - 1.2 - - - - - - -
22/09:30pm 12.7 N 28 34 1001.6 - 1.0 - - - - - - -
22/09:00pm 12.6 N 28 33 1002.4 - 1.0 Recent precip. - - - - - -
22/08:30pm 12.6 N 30 37 1002.6 - 1.0 - - - - - - -
22/08:13pm 12.1 N 23 33 1003.4 - 0.8 - - - - - - -
22/08:00pm 12.4 N 26 31 1003.1 - 0.6 - - - - - - -
22/07:30pm 12.8 N 26 32 1003.6 - 0.2 - - - - - - -
22/07:00pm 12.7 N 26 36 1004.0 - 0.2 - - - - - - -

Other Formats:

Comma delimited format used in spreadsheet applications
http://www.bom.gov.au/fwo/IDT60701/IDT60701.94974.axf

JavaScript Object Notation format (JSON) in row-major order
http://www.bom.gov.au/fwo/IDT60701/IDT60701.94974.json